Terminal Aerodrome Forecast
Issued by NWS

Home | Current Version | Previous Version | Graphics & Text | Print | Product List | Glossary On
Versions: 1 2 3 4 5 6 7 8 9 10 11 12 13 14 15 16 17 18 19 20 21
000
FTUS43 KBIS 191100
TAFJMS
TAF
KJMS 191133Z 1912/2012 19014KT P6SM VCSH SCT025 BKN070 OVC100
     FM191600 25014KT P6SM SCT120
     FM200200 29011KT P6SM BKN060=

USA.gov is the U.S. government's official web portal to all federal, state and local government web resources and services.